createdAt,value
2018-05-29T00:01:37.793Z,47.55
2018-05-29T00:06:40.296Z,47.92
2018-05-29T00:11:42.866Z,48.29
2018-05-29T00:16:45.318Z,47.49
2018-05-29T00:21:47.840Z,47.15
2018-05-29T00:26:50.333Z,47.42
2018-05-29T00:31:52.861Z,47.73
2018-05-29T00:36:55.460Z,47.66
2018-05-29T00:41:58.036Z,47.55
2018-05-29T00:47:00.568Z,47.54
2018-05-29T00:52:03.075Z,48.00
2018-05-29T00:57:05.566Z,48.51
2018-05-29T01:02:08.555Z,48.72
2018-05-29T01:07:11.516Z,48.93
2018-05-29T01:12:14.007Z,49.02
2018-05-29T01:17:16.483Z,49.35
2018-05-29T01:22:18.997Z,49.10
2018-05-29T01:27:21.554Z,49.36
2018-05-29T01:32:24.079Z,49.60
2018-05-29T01:37:26.579Z,49.98
2018-05-29T01:42:29.045Z,50.39
2018-05-29T01:47:31.561Z,50.48
2018-05-29T01:52:34.096Z,51.31
2018-05-29T01:57:36.609Z,51.91
2018-05-29T02:02:39.355Z,52.62
2018-05-29T02:07:41.839Z,52.61
2018-05-29T02:12:44.310Z,53.25
2018-05-29T02:17:46.800Z,53.35
2018-05-29T02:22:49.304Z,53.35
2018-05-29T02:27:51.827Z,53.56
2018-05-29T02:32:54.401Z,54.08
2018-05-29T02:37:56.915Z,54.66
2018-05-29T02:42:59.415Z,54.83
2018-05-29T02:48:01.943Z,54.98
2018-05-29T02:53:05.372Z,54.47
2018-05-29T02:58:07.884Z,54.07
2018-05-29T03:03:10.359Z,54.55
2018-05-29T03:08:12.887Z,54.65
2018-05-29T03:13:15.364Z,54.35
2018-05-29T03:18:17.868Z,54.10
2018-05-29T03:23:20.385Z,54.10
2018-05-29T03:28:22.903Z,54.49
2018-05-29T03:33:25.555Z,53.83
2018-05-29T03:38:28.882Z,53.52
2018-05-29T03:43:31.365Z,53.62
2018-05-29T03:48:33.916Z,53.92
2018-05-29T03:53:36.401Z,53.87
2018-05-29T03:58:38.859Z,53.57
2018-05-29T04:03:42.083Z,53.56
2018-05-29T04:08:44.618Z,53.24
2018-05-29T04:13:47.147Z,53.02
2018-05-29T04:18:49.823Z,52.56
2018-05-29T04:23:52.463Z,51.92
2018-05-29T04:28:55.051Z,38.79
2018-05-29T04:33:58.583Z,32.91
2018-05-29T04:39:01.097Z,30.53
2018-05-29T04:44:03.591Z,27.66
2018-05-29T04:49:06.079Z,26.27
2018-05-29T04:54:08.605Z,26.56
2018-05-29T04:59:11.189Z,24.43
2018-05-29T05:04:13.699Z,24.34
2018-05-29T05:09:16.191Z,23.65
2018-05-29T05:14:18.781Z,22.41
2018-05-29T05:19:21.287Z,23.49
2018-05-29T05:24:23.794Z,23.56
2018-05-29T05:29:26.311Z,23.03
2018-05-29T05:34:28.824Z,22.47
2018-05-29T05:39:31.340Z,21.54
2018-05-29T05:44:33.838Z,22.27
2018-05-29T05:49:36.591Z,21.71
2018-05-29T05:54:39.101Z,20.71
2018-05-29T05:59:41.588Z,19.79
2018-05-29T06:04:44.079Z,19.17
2018-05-29T06:09:46.588Z,19.06
2018-05-29T06:14:49.127Z,20.19
2018-05-29T06:19:51.657Z,19.99
2018-05-29T06:24:54.201Z,17.47
2018-05-29T06:29:56.686Z,19.31
2018-05-29T06:34:59.207Z,18.63
2018-05-29T06:40:01.788Z,20.98
2018-05-29T06:45:04.358Z,18.63
2018-05-29T06:50:06.792Z,19.86
2018-05-29T06:55:09.355Z,18.63
2018-05-29T07:00:11.849Z,19.12
2018-05-29T07:05:14.380Z,19.79
2018-05-29T07:10:16.913Z,18.12
2018-05-29T07:15:19.399Z,18.79
2018-05-29T07:20:22.228Z,18.54
2018-05-29T07:25:24.738Z,18.45
2018-05-29T07:30:27.272Z,17.51
2018-05-29T07:35:29.760Z,18.89
2018-05-29T07:40:32.234Z,17.85
2018-05-29T07:45:34.756Z,18.30
2018-05-29T07:50:37.245Z,18.23
2018-05-29T07:55:39.734Z,18.06
2018-05-29T08:00:42.233Z,16.00
2018-05-29T08:05:44.744Z,16.82
2018-05-29T08:10:47.241Z,15.46
2018-05-29T08:15:49.747Z,16.49
2018-05-29T08:20:52.282Z,16.62
2018-05-29T08:25:54.845Z,17.35
2018-05-29T08:30:57.404Z,15.66
2018-05-29T08:35:59.932Z,16.92
2018-05-29T08:41:02.425Z,17.61
2018-05-29T08:46:04.935Z,16.51
2018-05-29T08:51:07.422Z,15.39
2018-05-29T08:56:09.916Z,14.87
2018-05-29T09:01:12.393Z,16.42
2018-05-29T09:06:14.866Z,16.73
2018-05-29T09:11:17.357Z,16.62
2018-05-29T09:16:19.865Z,17.61
2018-05-29T09:21:22.380Z,17.73
2018-05-29T09:26:24.912Z,18.00
2018-05-29T09:31:27.425Z,16.77
2018-05-29T09:36:29.919Z,16.49
2018-05-29T09:41:32.470Z,16.35
2018-05-29T09:46:35.609Z,17.17
2018-05-29T09:51:38.113Z,17.97
2018-05-29T09:56:40.661Z,18.93
2018-05-29T10:01:43.133Z,17.77
2018-05-29T10:06:45.626Z,18.08
2018-05-29T10:11:48.168Z,17.50
2018-05-29T10:16:50.693Z,18.07
2018-05-29T10:21:53.496Z,18.10
2018-05-29T10:26:56.047Z,17.96
2018-05-29T10:31:58.544Z,18.50
2018-05-29T10:37:01.036Z,19.14
2018-05-29T10:42:03.684Z,20.68
2018-05-29T10:47:06.135Z,20.03
2018-05-29T10:52:08.646Z,21.90
2018-05-29T10:57:11.176Z,21.76
2018-05-29T11:02:13.758Z,22.01
2018-05-29T11:07:16.517Z,21.76
2018-05-29T11:12:19.090Z,22.25
2018-05-29T11:17:21.614Z,21.36
2018-05-29T11:22:24.145Z,21.87
2018-05-29T11:27:26.659Z,21.90
2018-05-29T11:32:29.180Z,22.71
2018-05-29T11:37:31.679Z,22.32
2018-05-29T11:42:34.162Z,23.12
2018-05-29T11:47:36.659Z,22.17
2018-05-29T11:52:39.257Z,22.27
2018-05-29T11:57:41.760Z,23.42
2018-05-29T12:02:44.818Z,21.92
2018-05-29T12:07:47.343Z,22.84
2018-05-29T12:12:49.864Z,22.04
2018-05-29T12:17:52.402Z,21.22
2018-05-29T12:22:54.919Z,21.22
2018-05-29T12:27:57.412Z,21.75
2018-05-29T12:32:59.883Z,21.67
2018-05-29T12:38:02.370Z,20.73
2018-05-29T12:43:04.889Z,22.05
2018-05-29T12:48:07.350Z,22.02
2018-05-29T12:53:09.838Z,20.73
2018-05-29T12:58:12.320Z,21.88
2018-05-29T13:03:14.826Z,23.14
2018-05-29T13:08:17.379Z,20.79
2018-05-29T13:13:19.903Z,20.93
2018-05-29T13:18:22.423Z,21.62
2018-05-29T13:23:24.982Z,20.29
2018-05-29T13:28:27.515Z,20.70
2018-05-29T13:33:29.999Z,20.57
2018-05-29T13:38:32.498Z,20.03
2018-05-29T13:43:34.981Z,19.98
2018-05-29T13:48:37.570Z,20.02
2018-05-29T13:53:40.033Z,18.87
2018-05-29T13:58:42.526Z,19.19
2018-05-29T14:03:45.033Z,18.84
2018-05-29T14:08:48.241Z,19.60
2018-05-29T14:13:51.891Z,19.69
2018-05-29T14:18:54.463Z,20.05
2018-05-29T14:23:56.979Z,19.35
2018-05-29T14:28:59.501Z,18.94
2018-05-29T14:34:02.178Z,19.39
2018-05-29T14:39:05.393Z,20.28
2018-05-29T14:44:08.043Z,19.46
2018-05-29T14:49:11.473Z,18.84
2018-05-29T14:54:14.206Z,19.53
2018-05-29T14:59:16.709Z,19.30
2018-05-29T15:04:19.230Z,19.15
2018-05-29T15:09:21.728Z,20.00
2018-05-29T15:14:24.371Z,19.26
2018-05-29T15:19:26.931Z,19.71
2018-05-29T15:24:29.452Z,19.68
2018-05-29T15:29:32.064Z,19.51
2018-05-29T15:34:34.557Z,18.52
2018-05-29T15:39:37.112Z,19.84
2018-05-29T15:44:39.706Z,19.52
2018-05-29T15:49:42.174Z,19.23
2018-05-29T15:54:44.697Z,19.29
2018-05-29T15:59:47.190Z,19.79
2018-05-29T16:04:49.734Z,20.54
2018-05-29T16:09:52.212Z,19.49
2018-05-29T16:14:55.225Z,19.75
2018-05-29T16:19:57.822Z,19.73
2018-05-29T16:25:00.390Z,20.12
2018-05-29T16:30:02.904Z,20.12
2018-05-29T16:35:05.404Z,19.82
2018-05-29T16:40:07.998Z,19.75
2018-05-29T16:45:10.478Z,20.23
2018-05-29T16:50:12.963Z,20.29
2018-05-29T16:55:15.530Z,20.27
2018-05-29T17:00:18.284Z,19.98
2018-05-29T17:05:20.775Z,21.02
2018-05-29T17:10:24.057Z,20.28
2018-05-29T17:15:26.632Z,20.63
2018-05-29T17:20:29.086Z,20.68
2018-05-29T17:25:31.593Z,20.55
2018-05-29T17:30:34.109Z,21.08
2018-05-29T17:35:36.609Z,21.28
2018-05-29T17:40:39.300Z,21.78
2018-05-29T17:45:41.807Z,21.11
2018-05-29T17:50:44.285Z,21.17
2018-05-29T17:55:47.177Z,21.92
2018-05-29T18:00:49.791Z,21.85
2018-05-29T18:05:52.281Z,21.74
2018-05-29T18:10:57.600Z,22.06
2018-05-29T18:16:00.134Z,22.28
2018-05-29T18:21:04.781Z,22.47
2018-05-29T18:26:07.304Z,22.67
2018-05-29T18:31:09.851Z,22.98
2018-05-29T18:36:18.156Z,24.42
2018-05-29T18:41:24.203Z,24.42
2018-05-29T18:46:27.018Z,23.91
2018-05-29T18:51:32.961Z,24.81
2018-05-29T18:56:37.064Z,24.84
2018-05-29T19:01:39.689Z,25.53
2018-05-29T19:06:42.396Z,26.84
2018-05-29T19:11:44.977Z,25.81
2018-05-29T19:16:49.090Z,25.99
2018-05-29T19:21:52.135Z,27.11
2018-05-29T19:26:55.873Z,27.31
2018-05-29T19:31:58.344Z,26.83
2018-05-29T19:37:00.944Z,27.26
2018-05-29T19:42:05.595Z,27.55
2018-05-29T19:47:08.108Z,27.41
2018-05-29T19:52:10.814Z,27.62
2018-05-29T19:57:13.523Z,28.16
2018-05-29T20:02:16.034Z,27.77
2018-05-29T20:07:18.581Z,28.05
2018-05-29T20:12:21.047Z,28.46
2018-05-29T20:17:30.540Z,28.47
2018-05-29T20:22:33.033Z,28.75
2018-05-29T20:27:35.879Z,29.01
2018-05-29T20:32:39.566Z,28.86
2018-05-29T20:37:42.080Z,29.23
2018-05-29T20:42:44.559Z,29.40
2018-05-29T20:47:47.776Z,29.35
2018-05-29T20:52:51.600Z,29.53
2018-05-29T20:57:54.084Z,29.66
2018-05-29T21:02:57.973Z,30.11
2018-05-29T21:08:01.072Z,30.88
2018-05-29T21:13:03.773Z,30.53
2018-05-29T21:18:06.852Z,30.82
2018-05-29T21:23:09.376Z,30.88
2018-05-29T21:28:12.284Z,31.03
2018-05-29T21:33:15.467Z,30.99
2018-05-29T21:38:17.971Z,31.07
2018-05-29T21:43:20.471Z,31.23
2018-05-29T21:48:22.954Z,31.70
2018-05-29T21:53:26.194Z,31.71
2018-05-29T21:58:28.730Z,31.97
2018-05-29T22:03:31.213Z,32.21
2018-05-29T22:08:33.789Z,32.69
2018-05-29T22:13:36.313Z,32.69
2018-05-29T22:18:38.814Z,33.39
2018-05-29T22:23:41.303Z,33.53
2018-05-29T22:28:43.792Z,33.73
2018-05-29T22:33:46.282Z,33.74
2018-05-29T22:38:48.743Z,34.29
2018-05-29T22:43:51.290Z,35.41
2018-05-29T22:48:53.813Z,35.96
2018-05-29T22:53:56.282Z,35.84
2018-05-29T22:58:58.844Z,36.35
2018-05-29T23:04:01.300Z,36.66
2018-05-29T23:09:03.814Z,36.94
2018-05-29T23:14:06.365Z,36.93
2018-05-29T23:19:08.868Z,38.02
2018-05-29T23:24:11.363Z,37.75
2018-05-29T23:29:13.832Z,38.17
2018-05-29T23:34:16.372Z,39.01
2018-05-29T23:39:18.840Z,39.28
2018-05-29T23:44:21.326Z,39.92
2018-05-29T23:49:23.827Z,40.19
2018-05-29T23:54:26.306Z,40.51
2018-05-29T23:59:28.792Z,40.89
